Time;durP1;ratioP1;P1;durP2;ratioP2;P2;SDS_P1;SDS_P2;PMS_P1;PMS_P2;Temp;Humidity;BMP_temperature;BMP_pressure;BME280_temperature;BME280_humidity;BME280_pressure;Samples;Min_cycle;Max_cycle;Signal;HPM_P1;HPM_P2
2022/12/30 00:00:43;;;;;;;8.63;1.90;;;;;;;5.79;100.00;100983.59;5096797;28;20035;-37
2022/12/30 00:03:08;;;;;;;8.63;1.87;;;;;;;5.81;100.00;100992.31;5096060;28;20051;-37
2022/12/30 00:05:33;;;;;;;6.73;2.30;;;;;;;5.78;100.00;100993.50;5096058;28;20078;-37
2022/12/30 00:07:59;;;;;;;6.83;2.00;;;;;;;5.79;100.00;100994.34;5096726;28;20111;-37
2022/12/30 00:10:24;;;;;;;10.77;2.23;;;;;;;5.77;100.00;100996.41;5096638;28;20121;-37
2022/12/30 00:35:18;;;;;;;10.27;2.20;;;;;;;5.55;100.00;101019.75;5096002;28;20054;-37
2022/12/30 00:37:44;;;;;;;7.35;2.08;;;;;;;5.51;100.00;101015.78;5095592;28;20027;-37
2022/12/30 00:40:10;;;;;;;10.50;1.88;;;;;;;5.48;100.00;101008.97;5095648;28;20384;-37
2022/12/30 00:45:21;;;;;;;7.13;2.03;;;;;;;5.40;100.00;100996.50;5095219;28;20106;-37
2022/12/30 00:47:47;;;;;;;8.73;2.20;;;;;;;5.46;100.00;100999.44;5095715;28;20024;-37
2022/12/30 00:58:24;;;;;;;9.80;2.20;;;;;;;5.38;100.00;101017.34;5095503;28;20153;-37
2022/12/30 01:00:49;;;;;;;11.10;3.13;;;;;;;5.38;100.00;101017.34;5095782;28;20476;-37
2022/12/30 01:03:14;;;;;;;6.10;1.90;;;;;;;5.36;100.00;101021.22;5095770;28;20028;-37
2022/12/30 01:05:40;;;;;;;10.00;2.63;;;;;;;5.36;100.00;101018.53;5095550;28;20024;-37
2022/12/30 01:08:06;;;;;;;11.43;2.67;;;;;;;5.31;100.00;101024.47;5093765;28;20047;-37
2022/12/30 01:10:31;;;;;;;9.65;2.55;;;;;;;5.23;100.00;101018.44;5095572;28;20032;-37
2022/12/30 01:12:57;;;;;;;9.00;2.28;;;;;;;5.24;100.00;101012.88;5095628;28;20028;-37
2022/12/30 01:15:22;;;;;;;12.97;3.27;;;;;;;5.31;100.00;101029.84;5094864;28;20110;-37
2022/12/30 01:17:48;;;;;;;10.00;2.53;;;;;;;5.29;100.00;101031.91;5095265;28;20111;-37
2022/12/30 01:20:13;;;;;;;13.67;3.27;;;;;;;5.25;100.00;101025.25;5095073;28;20055;-37
2022/12/30 01:22:39;;;;;;;10.30;2.87;;;;;;;5.15;100.00;100997.94;5094903;28;20036;-37
2022/12/30 01:25:04;;;;;;;10.27;2.60;;;;;;;5.27;100.00;101025.91;5094650;28;20027;-37
2022/12/30 01:27:33;;;;;;;11.25;2.80;;;;;;;5.24;100.00;101028.13;5094347;28;20110;-37
2022/12/30 01:29:59;;;;;;;11.07;2.85;;;;;;;5.24;100.00;101031.66;5094815;28;20024;-37
2022/12/30 01:32:27;;;;;;;9.32;2.63;;;;;;;5.24;100.00;101041.53;5095298;28;20411;-37
2022/12/30 01:34:54;;;;;;;11.60;3.20;;;;;;;5.27;100.00;101038.47;5094471;28;20032;-37
2022/12/30 01:37:19;;;;;;;14.93;4.03;;;;;;;5.22;100.00;101046.25;5095116;28;20040;-37
2022/12/30 01:39:45;;;;;;;11.80;3.03;;;;;;;5.22;100.00;101047.09;5094570;28;20028;-37
2022/12/30 01:42:20;;;;;;;13.40;2.95;;;;;;;5.21;100.00;101050.78;5094549;28;20032;-37
2022/12/30 01:44:48;;;;;;;11.07;3.05;;;;;;;5.22;100.00;101052.47;5094650;28;20056;-37
2022/12/30 01:47:26;;;;;;;12.85;3.22;;;;;;;5.23;100.00;101058.66;5094722;28;20044;-37
2022/12/30 01:49:57;;;;;;;13.68;2.88;;;;;;;5.10;100.00;101038.72;5094519;28;20044;-37
2022/12/30 01:52:25;;;;;;;12.90;2.78;;;;;;;5.21;100.00;101063.38;5094738;28;20020;-37
2022/12/30 01:54:54;;;;;;;11.50;2.58;;;;;;;5.21;100.00;101060.69;5094160;28;20170;-37
2022/12/30 01:57:20;;;;;;;12.68;3.50;;;;;;;5.07;100.00;101051.66;5094114;28;20405;-37
2022/12/30 01:59:46;;;;;;;13.20;2.95;;;;;;;5.17;100.00;101065.59;5094401;28;20031;-37
2022/12/30 02:02:12;;;;;;;12.43;2.78;;;;;;;5.16;100.00;101071.97;5093913;28;20027;-37
2022/12/30 02:04:37;;;;;;;11.80;2.75;;;;;;;5.13;100.00;101062.47;5094139;28;20465;-37
2022/12/30 02:07:03;;;;;;;17.10;3.47;;;;;;;5.17;100.00;101057.53;5093645;28;20035;-37
2022/12/30 02:09:31;;;;;;;10.70;2.43;;;;;;;5.11;100.00;101044.91;5093865;28;20036;-37
2022/12/30 02:11:57;;;;;;;8.93;2.42;;;;;;;5.13;100.00;101054.44;5094548;28;20364;-37
2022/12/30 02:14:23;;;;;;;7.82;2.08;;;;;;;5.10;100.00;101053.97;5094026;28;20082;-37
2022/12/30 02:17:04;;;;;;;12.93;3.00;;;;;;;5.12;100.00;101057.28;5093421;28;20024;-37
2022/12/30 02:19:47;;;;;;;13.50;3.13;;;;;;;5.13;100.00;101046.41;5094087;28;20097;-37
2022/12/30 02:22:36;;;;;;;11.20;2.70;;;;;;;5.10;100.00;101056.66;5093570;28;20110;-37
2022/12/30 02:25:13;;;;;;;10.80;2.60;;;;;;;5.04;100.00;101049.38;5011899;28;20505;-37
2022/12/30 02:28:29;;;;;;;12.57;2.88;;;;;;;5.05;100.00;101051.03;5011556;28;20080;-37
2022/12/30 02:31:30;;;;;;;13.48;2.72;;;;;;;5.02;100.00;101044.19;4972214;28;20043;-37
2022/12/30 02:34:12;;;;;;;9.52;2.45;;;;;;;4.99;100.00;101038.41;4972117;28;20491;-36
2022/12/30 02:37:05;;;;;;;14.18;3.08;;;;;;;4.96;100.00;101031.56;4972285;28;20491;-37
2022/12/30 02:39:42;;;;;;;10.32;2.60;;;;;;;4.96;100.00;101041.44;4972058;28;20069;-37
2022/12/30 02:45:11;;;;;;;12.45;3.13;;;;;;;4.87;100.00;101030.00;4972581;28;20045;-37
2022/12/30 02:47:43;;;;;;;10.77;3.05;;;;;;;4.87;100.00;101027.31;4972289;28;20054;-37
2022/12/30 02:53:01;;;;;;;13.23;2.90;;;;;;;4.85;100.00;101019.50;4972645;28;20089;-37
2022/12/30 02:55:26;;;;;;;10.23;2.50;;;;;;;4.77;100.00;100997.34;4971888;28;20069;-37
2022/12/30 02:57:52;;;;;;;11.27;2.58;;;;;;;4.86;100.00;101005.06;4971883;28;20038;-37
2022/12/30 03:06:19;;;;;;;9.70;2.17;;;;;;;4.93;100.00;100998.94;5011069;28;20465;-37
2022/12/30 03:08:54;;;;;;;15.80;3.30;;;;;;;4.87;100.00;101005.88;5073097;28;20060;-37
2022/12/30 03:11:20;;;;;;;13.18;3.28;;;;;;;4.85;100.00;101002.59;5072436;28;20040;-37
2022/12/30 03:14:03;;;;;;;8.70;2.55;;;;;;;4.82;100.00;100998.41;5072679;28;20028;-37
2022/12/30 03:16:51;;;;;;;12.55;2.65;;;;;;;4.73;100.00;100994.19;5073031;28;20029;-37
2022/12/30 03:19:21;;;;;;;9.93;2.70;;;;;;;4.77;100.00;101011.56;5073012;28;20418;-37
2022/12/30 03:21:50;;;;;;;11.77;2.90;;;;;;;4.67;100.00;100991.44;5072471;28;20024;-37
2022/12/30 03:27:08;;;;;;;13.75;3.10;;;;;;;4.64;100.00;101006.06;5072977;28;20039;-37
2022/12/30 03:29:40;;;;;;;13.07;2.50;;;;;;;4.61;100.00;101009.09;5072548;28;20024;-37
2022/12/30 03:32:10;;;;;;;13.82;2.78;;;;;;;4.47;100.00;100989.38;5076458;28;20399;-37
2022/12/30 03:34:36;;;;;;;9.73;2.92;;;;;;;4.59;100.00;101006.63;5076599;28;20033;-37
2022/12/30 03:37:23;;;;;;;13.95;2.63;;;;;;;4.63;100.00;101007.06;5076213;28;20090;-37
2022/12/30 03:39:59;;;;;;;12.05;2.80;;;;;;;4.57;100.00;101002.47;5077147;28;20027;-37
2022/12/30 03:42:25;;;;;;;7.90;2.17;;;;;;;4.51;100.00;100996.00;5076702;28;20034;-37
2022/12/30 03:44:51;;;;;;;8.98;2.38;;;;;;;4.47;100.00;100996.56;5076058;28;20107;-36
2022/12/30 03:47:18;;;;;;;14.52;3.40;;;;;;;4.49;100.00;101000.75;5094754;28;20128;-37
2022/12/30 03:49:44;;;;;;;13.27;3.15;;;;;;;4.50;100.00;101013.09;5096621;28;20028;-37
2022/12/30 03:52:11;;;;;;;11.00;2.72;;;;;;;4.47;100.00;100999.25;5096531;28;20464;-37
2022/12/30 03:54:37;;;;;;;11.07;2.80;;;;;;;4.44;100.00;101005.81;5096737;28;20028;-37
2022/12/30 03:57:02;;;;;;;14.00;3.22;;;;;;;4.44;100.00;101004.97;5096413;28;20090;-37
2022/12/30 03:59:28;;;;;;;11.90;2.70;;;;;;;4.39;100.00;101009.06;5097198;28;20080;-37
2022/12/30 04:01:53;;;;;;;9.00;2.87;;;;;;;4.35;100.00;100996.22;5096331;28;20421;-37
2022/12/30 04:04:19;;;;;;;11.03;2.50;;;;;;;4.39;100.00;101003.72;5096338;28;20081;-36
2022/12/30 04:06:44;;;;;;;9.97;2.37;;;;;;;4.39;100.00;101008.19;5096560;28;20025;-37
2022/12/30 04:09:10;;;;;;;10.02;3.03;;;;;;;4.30;100.00;100996.78;5096276;28;20259;-36
2022/12/30 04:11:35;;;;;;;11.80;3.40;;;;;;;4.35;100.00;101012.28;5096491;28;20024;-36
2022/12/30 04:14:00;;;;;;;12.53;3.00;;;;;;;4.34;100.00;101019.50;5096226;28;20031;-37
2022/12/30 04:16:26;;;;;;;11.67;2.90;;;;;;;4.32;100.00;101018.00;5096102;28;20028;-36
2022/12/30 04:18:51;;;;;;;11.13;2.80;;;;;;;4.16;100.00;100997.63;5096142;28;20024;-36
2022/12/30 04:21:16;;;;;;;13.63;3.50;;;;;;;4.23;100.00;101017.28;5095852;28;20024;-37
2022/12/30 04:23:42;;;;;;;12.17;3.23;;;;;;;4.22;100.00;101022.81;5095562;28;20146;-36
2022/12/30 04:26:07;;;;;;;8.93;2.90;;;;;;;4.23;100.00;101025.31;5095968;28;20103;-37
2022/12/30 04:28:33;;;;;;;9.32;2.47;;;;;;;4.23;100.00;101032.50;5096012;28;20357;-37
2022/12/30 04:30:58;;;;;;;13.63;3.10;;;;;;;4.16;100.00;101013.69;5095992;28;20028;-38
2022/12/30 04:33:23;;;;;;;12.07;2.83;;;;;;;4.17;100.00;101018.00;5096140;28;20024;-37
2022/12/30 04:35:49;;;;;;;12.57;3.10;;;;;;;4.18;100.00;101017.00;5095368;28;20373;-37
2022/12/30 04:38:14;;;;;;;15.33;4.20;;;;;;;4.16;100.00;101021.72;5095669;28;20123;-37
2022/12/30 04:40:39;;;;;;;12.97;3.70;;;;;;;4.14;100.00;101013.03;5095531;28;20141;-37
2022/12/30 04:43:04;;;;;;;11.17;2.70;;;;;;;4.07;100.00;101007.59;5095906;28;20034;-37
2022/12/30 04:45:30;;;;;;;14.40;3.50;;;;;;;4.11;100.00;101014.25;5095550;28;20078;-37
2022/12/30 04:47:55;;;;;;;15.63;2.50;;;;;;;4.12;100.00;101015.88;5095463;28;20032;-37
2022/12/30 04:50:20;;;;;;;14.27;3.27;;;;;;;4.13;100.00;101014.03;5095135;28;20400;-37
2022/12/30 04:52:46;;;;;;;11.00;2.80;;;;;;;4.07;100.00;101006.75;5095405;28;20024;-37
2022/12/30 04:55:11;;;;;;;13.13;3.23;;;;;;;4.01;100.00;100997.63;5095331;28;20063;-37
2022/12/30 04:57:36;;;;;;;12.50;3.33;;;;;;;4.06;100.00;101007.78;5095387;28;20048;-37
2022/12/30 05:00:03;;;;;;;10.77;2.60;;;;;;;4.01;100.00;101005.66;5095571;28;20122;-37
2022/12/30 05:02:28;;;;;;;11.70;2.50;;;;;;;4.02;100.00;101009.97;5095048;28;20039;-37
2022/12/30 05:04:54;;;;;;;11.37;2.40;;;;;;;4.01;100.00;100996.81;5095726;28;20103;-37
2022/12/30 05:07:19;;;;;;;14.57;2.97;;;;;;;4.01;100.00;100996.81;5094853;28;20058;-37
2022/12/30 05:09:44;;;;;;;12.17;3.47;;;;;;;3.90;100.00;100986.53;5095032;28;20039;-37
2022/12/30 05:12:10;;;;;;;12.37;4.30;;;;;;;4.02;100.00;101001.13;5095414;28;20125;-37
2022/12/30 05:14:35;;;;;;;17.27;3.40;;;;;;;4.01;100.00;100994.13;5095284;28;20043;-37
2022/12/30 05:17:00;;;;;;;13.17;2.80;;;;;;;3.96;100.00;100986.66;5094906;28;20373;-37
2022/12/30 05:19:26;;;;;;;11.17;2.83;;;;;;;4.02;100.00;100998.44;5095674;28;20080;-37
2022/12/30 05:21:51;;;;;;;13.07;3.03;;;;;;;4.04;100.00;100988.38;5095134;28;20034;-37
2022/12/30 05:27:00;;;;;;;12.95;3.08;;;;;;;4.07;100.00;100999.56;5094720;28;20448;-37
2022/12/30 05:29:26;;;;;;;15.07;3.10;;;;;;;4.01;100.00;100994.94;5094696;28;20060;-37
2022/12/30 05:31:51;;;;;;;7.80;2.37;;;;;;;4.09;100.00;100996.69;5094562;28;20114;-37
2022/12/30 05:34:16;;;;;;;15.33;3.60;;;;;;;4.00;100.00;100979.91;5095283;28;20027;-37
2022/12/30 05:36:42;;;;;;;14.63;4.03;;;;;;;4.04;100.00;100978.50;5094500;28;20031;-37
2022/12/30 05:39:11;;;;;;;12.97;2.70;;;;;;;4.03;100.00;100974.19;5094740;28;20382;-37
2022/12/30 05:41:36;;;;;;;15.80;3.60;;;;;;;4.11;100.00;100989.31;5094397;28;20028;-37
2022/12/30 05:44:01;;;;;;;11.33;2.90;;;;;;;4.09;100.00;100992.16;5094989;28;20077;-37
2022/12/30 05:46:27;;;;;;;9.10;2.70;;;;;;;4.10;100.00;100998.38;5094492;28;20473;-37
2022/12/30 05:48:52;;;;;;;6.10;2.37;;;;;;;4.13;100.00;101001.50;5094276;28;20100;-37
2022/12/30 05:51:17;;;;;;;15.07;3.17;;;;;;;4.13;100.00;101000.66;5094227;28;20020;-37
2022/12/30 05:53:43;;;;;;;13.97;3.33;;;;;;;4.13;100.00;100987.28;5094251;28;20108;-37
2022/12/30 05:56:08;;;;;;;14.20;3.27;;;;;;;4.15;100.00;100993.28;5094378;28;20461;-37
2022/12/30 05:58:33;;;;;;;11.20;3.17;;;;;;;4.15;100.00;100982.59;5094161;28;20073;-37
2022/12/30 06:00:59;;;;;;;10.67;2.97;;;;;;;4.12;100.00;100981.09;5093773;28;20028;-37
2022/12/30 06:03:24;;;;;;;14.10;3.23;;;;;;;4.14;100.00;100981.72;5094433;28;20073;-37
2022/12/30 06:05:57;;;;;;;16.50;2.70;;;;;;;4.17;100.00;100985.91;5093881;28;20098;-37
2022/12/30 06:08:23;;;;;;;13.60;2.90;;;;;;;4.09;100.00;100970.75;5094447;28;20326;-37
2022/12/30 06:10:48;;;;;;;12.33;3.30;;;;;;;4.16;100.00;100978.88;5094348;28;20032;-37
2022/12/30 06:13:13;;;;;;;14.07;3.40;;;;;;;4.17;100.00;100977.88;5094550;28;20327;-37
2022/12/30 06:15:39;;;;;;;8.90;2.97;;;;;;;4.15;100.00;100958.50;5093719;28;20495;-36
2022/12/30 06:18:04;;;;;;;11.23;3.27;;;;;;;4.18;100.00;100965.31;5093556;28;20068;-36
2022/12/30 06:20:32;;;;;;;12.93;3.43;;;;;;;4.16;100.00;100965.50;5093641;28;20017;-37
2022/12/30 06:22:58;;;;;;;14.27;3.08;;;;;;;4.15;100.00;100958.50;5093656;28;20631;-37
2022/12/30 06:25:24;;;;;;;10.23;3.08;;;;;;;4.15;100.00;100961.19;5093225;28;20111;-36
2022/12/30 06:27:50;;;;;;;15.18;3.38;;;;;;;4.19;100.00;100965.13;5093749;28;20039;-36
2022/12/30 06:30:15;;;;;;;10.90;3.03;;;;;;;4.18;100.00;100954.59;5094261;28;20039;-37
2022/12/30 06:32:41;;;;;;;12.70;2.50;;;;;;;4.19;100.00;100953.59;5093467;28;20074;-37
2022/12/30 06:35:07;;;;;;;12.52;3.47;;;;;;;4.20;100.00;100952.56;5094175;28;20414;-36
2022/12/30 06:37:32;;;;;;;17.98;4.43;;;;;;;4.21;100.00;100957.75;5093701;28;20064;-37
2022/12/30 06:39:57;;;;;;;11.33;3.60;;;;;;;4.19;100.00;100962.44;5093280;28;20056;-37
2022/12/30 06:42:23;;;;;;;13.10;3.20;;;;;;;4.22;100.00;100958.56;5092996;28;20035;-36
2022/12/30 06:44:48;;;;;;;15.43;3.23;;;;;;;4.22;100.00;100943.34;5093329;28;20027;-37
2022/12/30 06:47:13;;;;;;;8.73;2.33;;;;;;;4.25;100.00;100937.63;5093812;28;20071;-37
2022/12/30 06:49:39;;;;;;;10.50;3.10;;;;;;;4.21;100.00;100919.44;5093534;28;20111;-37
2022/12/30 06:52:04;;;;;;;13.70;3.00;;;;;;;4.19;100.00;100922.28;5093398;28;20066;-37
2022/12/30 06:54:29;;;;;;;13.30;3.57;;;;;;;4.20;100.00;100912.41;5093869;28;20063;-37
2022/12/30 06:56:55;;;;;;;12.97;3.70;;;;;;;4.19;100.00;100911.59;5093333;28;20444;-37
2022/12/30 06:59:20;;;;;;;10.57;2.50;;;;;;;4.28;100.00;100910.47;5092702;28;20028;-36
2022/12/30 07:01:45;;;;;;;12.40;2.90;;;;;;;4.27;100.00;100902.63;5093059;28;20035;-37
2022/12/30 07:04:11;;;;;;;7.70;2.60;;;;;;;4.30;100.00;100894.22;5092617;28;20127;-37
2022/12/30 07:06:36;;;;;;;11.27;3.30;;;;;;;4.30;100.00;100887.03;5092517;28;20024;-37
2022/12/30 07:09:01;;;;;;;9.83;3.70;;;;;;;4.29;100.00;100885.34;5092984;28;20341;-37
2022/12/30 07:11:27;;;;;;;13.23;3.80;;;;;;;4.27;100.00;100882.03;5093173;28;20574;-37
2022/12/30 07:13:52;;;;;;;11.80;3.40;;;;;;;4.29;100.00;100873.81;5093296;28;20360;-37
2022/12/30 07:16:17;;;;;;;16.80;2.83;;;;;;;4.31;100.00;100872.63;5092865;28;20380;-37
2022/12/30 07:18:43;;;;;;;14.23;4.13;;;;;;;4.31;100.00;100871.78;5092814;28;20020;-37
2022/12/30 07:21:08;;;;;;;10.40;3.17;;;;;;;4.34;100.00;100877.59;5092530;28;20123;-36
2022/12/30 07:23:33;;;;;;;9.07;2.87;;;;;;;4.32;100.00;100863.56;5093411;28;20028;-36
2022/12/30 07:25:59;;;;;;;10.03;3.07;;;;;;;4.36;100.00;100872.88;5092357;28;20112;-37
2022/12/30 07:28:24;;;;;;;11.10;2.43;;;;;;;4.41;100.00;100868.81;5092923;28;20024;-37
2022/12/30 07:30:49;;;;;;;12.30;3.47;;;;;;;4.32;100.00;100866.22;5092910;28;20530;-37
2022/12/30 07:33:14;;;;;;;10.17;2.37;;;;;;;4.39;100.00;100875.19;5092831;28;20059;-37
2022/12/30 07:35:40;;;;;;;10.33;2.90;;;;;;;4.41;100.00;100864.28;5092711;28;20039;-37
2022/12/30 07:38:05;;;;;;;12.40;4.27;;;;;;;4.35;100.00;100852.47;5092532;28;20047;-37
2022/12/30 07:40:30;;;;;;;9.23;3.23;;;;;;;4.43;100.00;100856.03;5093058;28;20380;-37
2022/12/30 07:42:56;;;;;;;12.03;2.80;;;;;;;4.40;100.00;100854.59;5093509;28;20459;-37
2022/12/30 07:45:21;;;;;;;7.67;2.30;;;;;;;4.37;100.00;100844.25;5092523;28;20452;-37
2022/12/30 07:47:46;;;;;;;13.93;2.67;;;;;;;4.36;100.00;100829.22;5093111;28;20044;-37
2022/12/30 07:50:12;;;;;;;7.40;3.27;;;;;;;4.42;100.00;100832.97;5092697;28;20366;-36
2022/12/30 07:52:39;;;;;;;9.00;2.47;;;;;;;4.38;100.00;100821.81;5074801;28;20376;-37
2022/12/30 07:55:04;;;;;;;12.43;2.83;;;;;;;4.33;100.00;100806.31;5093317;28;20421;-37
2022/12/30 07:57:30;;;;;;;10.13;3.17;;;;;;;4.38;100.00;100809.25;5092796;28;20059;-37
2022/12/30 07:59:55;;;;;;;9.87;3.00;;;;;;;4.42;100.00;100814.22;5092548;28;20032;-36
2022/12/30 08:02:21;;;;;;;11.70;3.10;;;;;;;4.35;100.00;100798.94;5092473;28;20036;-37
2022/12/30 08:04:47;;;;;;;10.70;3.38;;;;;;;4.42;100.00;100792.81;5092187;28;20028;-37
2022/12/30 08:07:15;;;;;;;10.80;3.60;;;;;;;4.39;100.00;100783.28;5092568;28;20039;-37
2022/12/30 08:09:40;;;;;;;8.82;3.05;;;;;;;4.47;100.00;100793.88;5092617;28;20527;-37
2022/12/30 08:12:05;;;;;;;10.70;2.80;;;;;;;4.53;100.00;100794.97;5092385;28;20032;-37
2022/12/30 08:14:31;;;;;;;8.77;2.93;;;;;;;4.58;100.00;100797.88;5092471;28;20031;-37
2022/12/30 08:16:56;;;;;;;10.50;2.73;;;;;;;4.51;100.00;100781.78;5094967;28;20020;-36
2022/12/30 08:19:21;;;;;;;10.60;2.43;;;;;;;4.59;100.00;100784.31;5096612;28;20047;-37
2022/12/30 08:21:47;;;;;;;7.07;2.70;;;;;;;4.66;100.00;100792.41;5095723;28;20032;-37
2022/12/30 08:24:12;;;;;;;6.87;2.17;;;;;;;4.67;100.00;100782.50;5096243;28;20032;-37
2022/12/30 08:26:37;;;;;;;6.00;2.27;;;;;;;4.66;100.00;100768.28;5095975;28;20393;-37
2022/12/30 08:29:03;;;;;;;7.03;2.30;;;;;;;4.77;100.00;100781.16;5096240;28;20254;-37
2022/12/30 08:31:29;;;;;;;11.40;2.20;;;;;;;4.81;100.00;100785.09;5095769;28;20115;-36
2022/12/30 08:33:56;;;;;;;6.32;2.10;;;;;;;4.84;100.00;100775.88;5095925;28;20054;-37
2022/12/30 08:36:25;;;;;;;9.25;2.50;;;;;;;4.86;100.00;100763.91;5095694;28;20125;-36
2022/12/30 08:38:53;;;;;;;7.00;1.92;;;;;;;4.85;100.00;100748.03;5096209;28;20085;-37
2022/12/30 08:41:29;;;;;;;7.18;2.20;;;;;;;4.97;100.00;100743.78;5095582;28;20024;-36
2022/12/30 08:43:56;;;;;;;7.93;2.30;;;;;;;5.03;100.00;100751.06;5096109;28;20028;-37
2022/12/30 08:46:24;;;;;;;6.10;2.08;;;;;;;4.99;100.00;100738.25;5095652;28;20051;-37
2022/12/30 08:48:50;;;;;;;5.82;2.13;;;;;;;5.13;100.00;100746.16;5095334;28;20035;-36
2022/12/30 08:51:15;;;;;;;7.10;1.95;;;;;;;5.12;100.00;100736.47;5095220;28;20453;-37
2022/12/30 08:53:41;;;;;;;8.13;2.13;;;;;;;5.25;100.00;100732.19;5095758;28;20031;-37
2022/12/30 08:56:10;;;;;;;8.27;2.20;;;;;;;5.29;100.00;100720.88;5095386;28;20366;-37
2022/12/30 08:58:36;;;;;;;8.63;2.38;;;;;;;5.31;100.00;100713.44;5095108;28;20020;-37
2022/12/30 09:01:09;;;;;;;7.25;2.00;;;;;;;5.39;100.00;100712.47;5095633;28;20035;-37
2022/12/30 09:03:36;;;;;;;5.53;1.95;;;;;;;5.44;100.00;100707.31;5077517;28;20043;-37
2022/12/30 09:06:02;;;;;;;8.30;2.08;;;;;;;5.51;100.00;100712.69;5095658;28;20027;-37
2022/12/30 09:08:27;;;;;;;9.20;1.83;;;;;;;5.42;100.00;100688.75;5095283;28;20044;-37
2022/12/30 09:10:58;;;;;;;6.78;2.00;;;;;;;5.40;100.00;100682.75;5095153;28;20020;-37
2022/12/30 09:13:23;;;;;;;7.82;1.77;;;;;;;5.63;100.00;100703.06;5095795;28;20024;-37
2022/12/30 09:15:49;;;;;;;6.97;1.75;;;;;;;5.68;100.00;100700.59;5094977;28;20371;-37
2022/12/30 09:18:14;;;;;;;6.50;2.13;;;;;;;5.71;100.00;100697.50;5095279;28;20024;-37
2022/12/30 09:20:40;;;;;;;6.47;1.60;;;;;;;5.73;100.00;100700.81;5094910;28;20111;-37
2022/12/30 09:23:05;;;;;;;5.72;1.80;;;;;;;5.80;100.00;100696.28;5095151;28;20102;-37
2022/12/30 09:25:30;;;;;;;5.50;1.67;;;;;;;5.83;100.00;100690.50;5094497;28;20472;-37
2022/12/30 09:27:56;;;;;;;5.97;1.40;;;;;;;5.86;100.00;100690.09;5094053;28;20053;-37
2022/12/30 09:30:21;;;;;;;6.73;1.97;;;;;;;5.90;100.00;100688.69;5094799;28;20024;-37
2022/12/30 09:32:46;;;;;;;5.90;1.63;;;;;;;5.94;100.00;100681.88;5095227;28;20080;-37
2022/12/30 09:35:12;;;;;;;5.83;1.67;;;;;;;6.03;100.00;100682.50;5094863;28;20043;-37
2022/12/30 09:37:38;;;;;;;3.77;1.50;;;;;;;6.08;100.00;100679.22;5094422;28;20040;-37
2022/12/30 09:40:03;;;;;;;7.20;1.63;;;;;;;6.08;100.00;100663.09;5094705;28;20028;-37
2022/12/30 09:45:53;;;;;;;5.25;1.30;;;;;;;6.23;100.00;100674.47;5094640;28;20039;-36
2022/12/30 09:48:24;;;;;;;5.30;1.42;;;;;;;6.31;100.00;100660.03;5085848;28;20048;-37
2022/12/30 09:50:58;;;;;;;6.10;1.40;;;;;;;6.34;100.00;100660.41;5094512;28;20088;-37
2022/12/30 09:53:42;;;;;;;4.63;1.50;;;;;;;6.39;100.00;100651.72;5094993;28;20113;-37
2022/12/30 09:56:15;;;;;;;6.05;1.55;;;;;;;6.33;100.00;100629.22;5094896;28;20055;-37
2022/12/30 09:58:44;;;;;;;3.75;1.27;;;;;;;6.48;100.00;100642.44;5093701;28;20150;-37
2022/12/30 10:01:41;;;;;;;4.65;1.50;;;;;;;6.50;100.00;100626.94;5132354;27;20023;-37
2022/12/30 10:04:18;;;;;;;4.32;1.48;;;;;;;6.50;100.00;100618.88;5134449;27;20027;-37
2022/12/30 10:07:03;;;;;;;8.07;1.95;;;;;;;6.55;100.00;100615.56;5135188;27;20069;-37
2022/12/30 10:09:42;;;;;;;3.40;1.45;;;;;;;6.56;100.00;100604.59;5135239;27;20019;-36
2022/12/30 10:12:19;;;;;;;7.63;1.70;;;;;;;6.62;100.00;100602.94;5134785;27;20039;-36
2022/12/30 10:15:12;;;;;;;5.18;1.40;;;;;;;6.64;100.00;100607.06;5135592;27;20031;-36
2022/12/30 10:17:40;;;;;;;6.07;1.70;;;;;;;6.65;100.00;100589.09;5134527;27;20065;-36
2022/12/30 10:20:11;;;;;;;4.22;1.35;;;;;;;6.67;100.00;100589.69;5135099;27;20027;-36
2022/12/30 10:22:48;;;;;;;5.60;1.65;;;;;;;6.69;100.00;100571.50;5134722;27;20383;-37
2022/12/30 10:25:39;;;;;;;3.28;1.17;;;;;;;6.70;100.00;100555.16;5134640;27;20355;-36
2022/12/30 10:28:08;;;;;;;4.68;1.25;;;;;;;6.70;100.00;100551.66;5134673;27;20026;-36
2022/12/30 10:30:38;;;;;;;3.53;1.45;;;;;;;6.66;100.00;100543.19;5134334;27;20383;-36
2022/12/30 10:33:13;;;;;;;5.25;1.50;;;;;;;6.68;100.00;100542.97;5134783;27;20031;-36
2022/12/30 10:35:41;;;;;;;4.50;1.33;;;;;;;6.73;100.00;100537.78;5134393;27;20066;-36
2022/12/30 10:38:13;;;;;;;5.28;1.60;;;;;;;6.62;100.00;100501.66;5134389;27;20038;-36
2022/12/30 10:41:04;;;;;;;6.18;1.42;;;;;;;6.82;100.00;100517.69;5134184;27;20057;-36
2022/12/30 10:43:42;;;;;;;6.55;1.48;;;;;;;6.86;100.00;100510.84;5130050;27;20038;-36
2022/12/30 10:46:26;;;;;;;6.68;1.58;;;;;;;6.90;100.00;100498.63;5134675;27;20101;-36
2022/12/30 10:49:10;;;;;;;4.80;1.30;;;;;;;6.91;100.00;100494.91;5134463;27;20505;-36
2022/12/30 10:51:36;;;;;;;6.82;1.52;;;;;;;6.95;100.00;100490.75;5134220;27;20156;-36
2022/12/30 10:54:01;;;;;;;4.82;1.60;;;;;;;6.95;100.00;100479.16;5134788;27;20023;-36
2022/12/30 10:56:30;;;;;;;7.95;1.40;;;;;;;6.96;100.00;100464.69;5134054;27;20034;-36
2022/12/30 10:59:17;;;;;;;4.70;1.63;;;;;;;7.01;100.00;100456.78;5133849;27;20439;-36
2022/12/30 11:01:45;;;;;;;3.45;1.35;;;;;;;7.02;100.00;100445.00;5133805;27;20034;-36
2022/12/30 11:04:35;;;;;;;10.10;2.55;;;;;;;7.07;100.00;100431.72;5133902;27;20019;-37
2022/12/30 11:07:04;;;;;;;8.23;1.45;;;;;;;7.04;100.00;100424.09;5133885;27;20015;-36
2022/12/30 11:09:29;;;;;;;7.00;1.85;;;;;;;7.06;100.00;100413.94;5133960;27;20038;-36
2022/12/30 11:14:42;;;;;;;10.20;2.05;;;;;;;7.19;100.00;100399.59;5134248;27;20252;-36
2022/12/30 11:17:13;;;;;;;6.90;1.85;;;;;;;7.19;100.00;100391.53;5133874;28;20031;-36
2022/12/30 11:19:39;;;;;;;5.28;1.70;;;;;;;7.17;100.00;100380.13;5133952;28;20035;-36
2022/12/30 11:22:04;;;;;;;4.43;1.45;;;;;;;7.23;100.00;100382.78;5133750;28;20027;-36
2022/12/30 11:24:30;;;;;;;5.00;1.70;;;;;;;7.13;100.00;100358.25;5134057;28;20055;-36
2022/12/30 11:26:55;;;;;;;8.33;1.80;;;;;;;7.24;100.00;100354.03;5134373;28;20034;-38
2022/12/30 11:29:22;;;;;;;5.00;1.77;;;;;;;7.31;100.00;100349.41;5134053;28;20240;-37
2022/12/30 11:31:52;;;;;;;8.27;1.63;;;;;;;7.35;100.00;100345.22;5133775;28;20110;-37
2022/12/30 11:34:29;;;;;;;6.57;1.70;;;;;;;7.32;100.00;100318.78;5134436;28;20092;-37
2022/12/30 11:36:55;;;;;;;6.15;1.77;;;;;;;7.39;100.00;100322.22;5134200;28;20048;-37
2022/12/30 11:39:23;;;;;;;6.78;1.98;;;;;;;7.41;100.00;100324.69;5134018;28;20536;-37
2022/12/30 11:41:51;;;;;;;5.82;1.65;;;;;;;7.43;100.00;100312.66;5134329;28;20146;-37
2022/12/30 11:44:24;;;;;;;4.65;1.25;;;;;;;7.37;100.00;100288.50;5133495;28;20383;-37
2022/12/30 11:46:55;;;;;;;7.45;2.20;;;;;;;7.43;100.00;100299.22;5133563;28;20074;-37
2022/12/30 11:49:28;;;;;;;6.90;1.60;;;;;;;7.46;100.00;100298.75;5133816;28;20019;-37
2022/12/30 11:52:07;;;;;;;7.35;1.90;;;;;;;7.51;100.00;100278.44;5136340;27;20463;-37
2022/12/30 11:54:38;;;;;;;4.43;1.38;;;;;;;7.48;100.00;100267.09;5137220;27;20031;-37
2022/12/30 11:57:06;;;;;;;6.63;1.70;;;;;;;7.56;100.00;100268.63;5137951;27;20041;-37
2022/12/30 11:59:36;;;;;;;6.90;1.38;;;;;;;7.59;100.00;100259.31;5137208;27;20039;-37
2022/12/30 12:02:24;;;;;;;7.97;1.73;;;;;;;7.62;100.00;100248.91;5137845;27;20453;-37
2022/12/30 12:04:49;;;;;;;8.20;1.75;;;;;;;7.66;100.00;100231.28;5137636;27;20034;-37
2022/12/30 12:07:17;;;;;;;5.90;1.83;;;;;;;7.63;100.00;100195.91;5137406;27;20109;-37
2022/12/30 12:09:48;;;;;;;5.78;1.80;;;;;;;7.72;100.00;100199.94;5137896;27;20699;-37
2022/12/30 12:12:18;;;;;;;7.75;1.90;;;;;;;7.69;100.00;100190.44;5137342;27;20023;-37
2022/12/30 12:14:58;;;;;;;6.97;1.70;;;;;;;7.74;100.00;100198.66;5119158;27;20380;-37
2022/12/30 12:17:29;;;;;;;6.35;1.67;;;;;;;7.74;100.00;100179.00;5137704;27;20035;-37
2022/12/30 12:20:06;;;;;;;6.55;1.60;;;;;;;7.82;100.00;100177.84;5137346;27;20455;-37
2022/12/30 12:22:52;;;;;;;11.60;3.10;;;;;;;7.80;100.00;100177.25;5138008;27;20019;-37
2022/12/30 12:25:22;;;;;;;5.82;1.48;;;;;;;7.84;100.00;100171.19;5136716;27;20027;-37